createdAt,value
2018-07-08T00:00:42.050Z,14.7
2018-07-08T00:01:44.091Z,14.8
2018-07-08T00:02:46.563Z,14.8
2018-07-08T00:03:48.597Z,14.8
2018-07-08T00:04:50.658Z,14.8
2018-07-08T00:05:52.686Z,14.8
2018-07-08T00:06:55.013Z,14.7
2018-07-08T00:07:57.109Z,14.7
2018-07-08T00:08:59.776Z,14.7
2018-07-08T00:10:02.199Z,14.7
2018-07-08T00:11:04.246Z,14.8
2018-07-08T00:12:06.320Z,14.7
2018-07-08T00:13:08.777Z,14.7
2018-07-08T00:14:10.817Z,14.8
2018-07-08T00:15:12.856Z,14.7
2018-07-08T00:16:14.907Z,14.8
2018-07-08T00:17:16.961Z,14.8
2018-07-08T00:18:18.993Z,14.8
2018-07-08T00:19:21.349Z,14.8
2018-07-08T00:20:23.384Z,14.8
2018-07-08T00:21:25.451Z,14.8
2018-07-08T00:22:27.529Z,14.7
2018-07-08T00:23:29.980Z,14.8
2018-07-08T00:24:32.026Z,14.8
2018-07-08T00:25:34.061Z,14.7
2018-07-08T00:26:36.123Z,14.7
2018-07-08T00:27:38.481Z,14.7
2018-07-08T00:28:40.552Z,14.7
2018-07-08T00:29:42.616Z,14.7
2018-07-08T00:30:44.671Z,14.7
2018-07-08T00:31:46.717Z,14.7
2018-07-08T00:32:49.082Z,14.7
2018-07-08T00:33:51.133Z,14.7
2018-07-08T00:34:53.476Z,14.6
2018-07-08T00:35:55.555Z,14.6
2018-07-08T00:36:57.614Z,14.7
2018-07-08T00:37:59.680Z,14.6
2018-07-08T00:39:02.013Z,14.6
2018-07-08T00:40:04.063Z,14.6
2018-07-08T00:41:06.109Z,14.6
2018-07-08T00:42:08.143Z,14.6
2018-07-08T00:43:10.180Z,14.6
2018-07-08T00:44:12.244Z,14.5
2018-07-08T00:45:14.581Z,14.5
2018-07-08T00:46:16.664Z,14.6
2018-07-08T00:47:19.050Z,14.6
2018-07-08T00:48:22.375Z,14.6
2018-07-08T00:49:24.445Z,14.6
2018-07-08T00:50:26.487Z,14.6
2018-07-08T00:51:28.818Z,14.6
2018-07-08T00:52:30.872Z,14.6
2018-07-08T00:53:32.982Z,14.6
2018-07-08T00:54:35.278Z,14.6
2018-07-08T00:55:37.309Z,14.6
2018-07-08T00:56:39.398Z,14.6
2018-07-08T00:57:41.712Z,14.6
2018-07-08T00:58:43.780Z,14.6
2018-07-08T00:59:45.843Z,14.6
2018-07-08T01:00:47.883Z,14.6
2018-07-08T01:01:49.943Z,14.6
2018-07-08T01:02:52.020Z,14.6
2018-07-08T01:03:54.462Z,14.5
2018-07-08T01:04:56.512Z,14.5
2018-07-08T01:05:59.245Z,14.5
2018-07-08T01:07:01.879Z,14.5
2018-07-08T01:08:03.940Z,14.5
2018-07-08T01:09:06.286Z,14.5
2018-07-08T01:10:08.327Z,14.4
2018-07-08T01:11:10.364Z,14.5
2018-07-08T01:12:12.455Z,14.4
2018-07-08T01:13:14.792Z,14.4
2018-07-08T01:14:16.859Z,14.3
2018-07-08T01:15:18.930Z,14.4
2018-07-08T01:16:20.985Z,14.4
2018-07-08T01:17:23.038Z,14.4
2018-07-08T01:18:25.373Z,14.4
2018-07-08T01:19:27.450Z,14.4
2018-07-08T01:20:29.498Z,14.4
2018-07-08T01:21:32.198Z,14.4
2018-07-08T01:22:34.241Z,14.4
2018-07-08T01:23:36.964Z,14.4
2018-07-08T01:24:39.021Z,14.4
2018-07-08T01:25:41.073Z,14.4
2018-07-08T01:26:43.107Z,14.4
2018-07-08T01:27:45.461Z,14.4
2018-07-08T01:28:47.513Z,14.4
2018-07-08T01:29:49.557Z,14.4
2018-07-08T01:30:51.613Z,14.4
2018-07-08T01:31:53.653Z,14.4
2018-07-08T01:32:55.693Z,14.4
2018-07-08T01:33:57.728Z,14.4
2018-07-08T01:34:59.776Z,14.4
2018-07-08T01:36:01.818Z,14.4
2018-07-08T01:37:03.858Z,14.5
2018-07-08T01:38:05.886Z,14.5
2018-07-08T01:39:07.924Z,14.5
2018-07-08T01:40:10.561Z,14.5
2018-07-08T01:41:12.599Z,14.5
2018-07-08T01:42:14.636Z,14.5
2018-07-08T01:43:16.689Z,14.6
2018-07-08T01:44:18.733Z,14.5
2018-07-08T01:45:20.759Z,14.5
2018-07-08T01:46:22.795Z,14.5
2018-07-08T01:47:24.839Z,14.6
2018-07-08T01:48:27.154Z,14.5
2018-07-08T01:49:29.188Z,14.5
2018-07-08T01:50:31.619Z,14.6
2018-07-08T01:51:34.040Z,14.6
2018-07-08T01:52:36.081Z,14.6
2018-07-08T01:53:38.112Z,14.5
2018-07-08T01:54:40.747Z,14.6
2018-07-08T01:55:42.783Z,14.6
2018-07-08T01:56:44.813Z,14.6
2018-07-08T01:57:47.162Z,14.6
2018-07-08T01:58:49.203Z,14.6
2018-07-08T01:59:51.241Z,14.6
2018-07-08T02:00:53.281Z,14.6
2018-07-08T02:01:55.328Z,14.6
2018-07-08T02:02:57.364Z,14.6
2018-07-08T02:03:59.415Z,14.6
2018-07-08T02:05:01.454Z,14.7
2018-07-08T02:06:03.781Z,14.6
2018-07-08T02:07:05.904Z,14.6
2018-07-08T02:08:07.862Z,14.6
2018-07-08T02:09:10.185Z,14.6
2018-07-08T02:10:12.218Z,14.6
2018-07-08T02:11:14.939Z,14.6
2018-07-08T02:12:16.990Z,14.6
2018-07-08T02:13:19.016Z,14.6
2018-07-08T02:14:21.356Z,14.6
2018-07-08T02:15:23.682Z,14.6
2018-07-08T02:16:26.032Z,14.6
2018-07-08T02:17:28.455Z,14.6
2018-07-08T02:18:30.494Z,14.6
2018-07-08T02:19:32.548Z,14.6
2018-07-08T02:20:34.861Z,14.6
2018-07-08T02:21:36.897Z,14.6
2018-07-08T02:22:38.942Z,14.6
2018-07-08T02:23:40.974Z,14.6
2018-07-08T02:24:43.012Z,14.5
2018-07-08T02:25:45.620Z,14.5
2018-07-08T02:26:47.665Z,14.5
2018-07-08T02:27:49.988Z,14.5
2018-07-08T02:28:52.020Z,14.5
2018-07-08T02:29:54.057Z,14.4
2018-07-08T02:30:56.094Z,14.4
2018-07-08T02:31:58.439Z,14.4
2018-07-08T02:33:00.864Z,14.4
2018-07-08T02:34:03.193Z,14.4
2018-07-08T02:35:05.507Z,14.4
2018-07-08T02:36:07.934Z,14.4
2018-07-08T02:37:09.967Z,14.4
2018-07-08T02:38:12.013Z,14.4
2018-07-08T02:39:14.058Z,14.4
2018-07-08T02:40:16.100Z,14.4
2018-07-08T02:41:18.527Z,14.4
2018-07-08T02:42:20.569Z,14.4
2018-07-08T02:43:22.996Z,14.3
2018-07-08T02:44:25.050Z,14.3
2018-07-08T02:45:27.080Z,14.3
2018-07-08T02:46:29.125Z,14.3
2018-07-08T02:47:31.445Z,14.3
2018-07-08T02:48:33.483Z,14.2
2018-07-08T02:49:35.834Z,14.3
2018-07-08T02:50:38.541Z,14.3
2018-07-08T02:51:40.594Z,14.3
2018-07-08T02:52:42.915Z,14.3
2018-07-08T02:53:44.952Z,14.3
2018-07-08T02:54:47.006Z,14.2
2018-07-08T02:55:49.036Z,14.2
2018-07-08T02:56:51.128Z,14.2
2018-07-08T02:57:53.396Z,14.2
2018-07-08T02:58:55.819Z,14.2
2018-07-08T02:59:57.862Z,14.2
2018-07-08T03:00:59.900Z,14.3
2018-07-08T03:02:01.939Z,14.3
2018-07-08T03:03:03.991Z,14.2
2018-07-08T03:04:06.026Z,14.3
2018-07-08T03:05:08.063Z,14.3
2018-07-08T03:06:10.143Z,14.3
2018-07-08T03:07:12.520Z,14.3
2018-07-08T03:08:14.562Z,14.3
2018-07-08T03:09:16.603Z,14.3
2018-07-08T03:10:19.438Z,14.4
2018-07-08T03:11:22.147Z,14.4
2018-07-08T03:12:24.849Z,14.4
2018-07-08T03:13:27.176Z,14.5
2018-07-08T03:14:29.795Z,14.4
2018-07-08T03:15:32.128Z,14.5
2018-07-08T03:16:34.564Z,14.5
2018-07-08T03:17:36.889Z,14.5
2018-07-08T03:18:39.219Z,14.5
2018-07-08T03:19:41.265Z,14.5
2018-07-08T03:20:43.299Z,14.6
2018-07-08T03:21:45.620Z,14.6
2018-07-08T03:22:48.040Z,14.6
2018-07-08T03:23:50.370Z,14.6
2018-07-08T03:24:52.399Z,14.6
2018-07-08T03:25:55.107Z,14.6
2018-07-08T03:26:57.541Z,14.7
2018-07-08T03:27:59.855Z,14.7
2018-07-08T03:29:02.207Z,14.7
2018-07-08T03:30:04.250Z,14.7
2018-07-08T03:31:06.604Z,14.7
2018-07-08T03:32:08.937Z,14.7
2018-07-08T03:33:10.984Z,14.8
2018-07-08T03:34:13.037Z,14.7
2018-07-08T03:35:15.458Z,14.7
2018-07-08T03:36:17.491Z,14.8
2018-07-08T03:37:19.534Z,14.8
2018-07-08T03:38:21.581Z,14.8
2018-07-08T03:39:23.616Z,14.9
2018-07-08T03:40:25.658Z,14.8
2018-07-08T03:41:27.688Z,14.9
2018-07-08T03:42:29.730Z,14.8
2018-07-08T03:43:31.757Z,14.9
2018-07-08T03:44:33.795Z,14.9
2018-07-08T03:45:35.853Z,14.9
2018-07-08T03:46:37.888Z,14.9
2018-07-08T03:47:39.933Z,14.9
2018-07-08T03:48:42.362Z,14.9
2018-07-08T03:49:44.396Z,14.9
2018-07-08T03:50:46.437Z,14.9
2018-07-08T03:51:48.476Z,14.9
2018-07-08T03:52:50.526Z,15
2018-07-08T03:53:52.570Z,14.9
2018-07-08T03:54:54.596Z,14.9
2018-07-08T03:55:56.634Z,15
2018-07-08T03:56:58.667Z,15
2018-07-08T03:58:00.718Z,15.1
2018-07-08T03:59:02.750Z,15
2018-07-08T04:00:04.796Z,15
2018-07-08T04:01:07.222Z,14.9
2018-07-08T04:02:09.933Z,15
2018-07-08T04:03:11.978Z,15
2018-07-08T04:04:14.009Z,15
2018-07-08T04:05:16.040Z,15
2018-07-08T04:06:18.093Z,15
2018-07-08T04:07:20.114Z,15.1
2018-07-08T04:08:22.166Z,15
2018-07-08T04:09:24.203Z,15.1
2018-07-08T04:10:26.545Z,15.1
2018-07-08T04:11:28.589Z,15
2018-07-08T04:12:30.625Z,15.1
2018-07-08T04:13:32.659Z,15.1
2018-07-08T04:14:34.709Z,15.1
2018-07-08T04:15:36.739Z,15.2
2018-07-08T04:16:38.791Z,15.2
2018-07-08T04:17:40.825Z,15.2
2018-07-08T04:18:42.862Z,15.2
2018-07-08T04:19:44.896Z,15.1
2018-07-08T04:20:46.937Z,15.1
2018-07-08T04:21:48.975Z,15.2
2018-07-08T04:22:51.019Z,15.1
2018-07-08T04:23:53.435Z,15.2
2018-07-08T04:24:55.479Z,15.2
2018-07-08T04:25:57.506Z,15.1
2018-07-08T04:26:59.837Z,15.2
2018-07-08T04:28:01.935Z,15.1
2018-07-08T04:29:03.968Z,15.2
2018-07-08T04:30:06.015Z,15.3
2018-07-08T04:31:08.617Z,15.3
2018-07-08T04:32:10.657Z,15.3
2018-07-08T04:33:12.997Z,15.2
2018-07-08T04:34:15.611Z,15.2
2018-07-08T04:35:17.651Z,15.2
2018-07-08T04:36:19.691Z,15.2
2018-07-08T04:37:21.732Z,15.1
2018-07-08T04:38:23.770Z,15.2
2018-07-08T04:39:25.805Z,15.2
2018-07-08T04:40:28.426Z,15.2
2018-07-08T04:41:30.456Z,15.3
2018-07-08T04:42:32.503Z,15.3
2018-07-08T04:43:34.554Z,15.3
2018-07-08T04:44:36.918Z,15.3
2018-07-08T04:45:38.963Z,15.3
2018-07-08T04:46:41.285Z,15.3
2018-07-08T04:47:43.311Z,15.3
2018-07-08T04:48:45.360Z,15.3
2018-07-08T04:49:47.405Z,15.3
2018-07-08T04:50:49.451Z,15.3
2018-07-08T04:51:51.493Z,15.3
2018-07-08T04:52:53.538Z,15.3
2018-07-08T04:53:55.581Z,15.4
2018-07-08T04:54:57.616Z,15.4
2018-07-08T04:56:00.040Z,15.3
2018-07-08T04:57:02.368Z,15.4
2018-07-08T04:58:04.404Z,15.3
2018-07-08T04:59:06.444Z,15.4
2018-07-08T05:00:08.773Z,15.4
2018-07-08T05:01:10.819Z,15.4
2018-07-08T05:02:12.856Z,15.4
2018-07-08T05:03:14.893Z,15.4
2018-07-08T05:04:16.933Z,15.4
2018-07-08T05:05:19.270Z,15.5
2018-07-08T05:06:21.586Z,15.5
2018-07-08T05:07:23.918Z,15.6
2018-07-08T05:08:25.947Z,15.5
2018-07-08T05:09:28.290Z,15.5
2018-07-08T05:10:30.612Z,15.6
2018-07-08T05:11:32.647Z,15.6
2018-07-08T05:12:34.688Z,15.6
2018-07-08T05:13:36.738Z,15.6
2018-07-08T05:14:38.782Z,15.6
2018-07-08T05:15:40.812Z,15.6
2018-07-08T05:16:42.852Z,15.6
2018-07-08T05:17:44.895Z,15.6
2018-07-08T05:18:47.316Z,15.7
2018-07-08T05:19:49.363Z,15.7
2018-07-08T05:20:51.400Z,15.7
2018-07-08T05:21:53.455Z,15.7
2018-07-08T05:22:55.473Z,15.7
2018-07-08T05:23:57.513Z,15.7
2018-07-08T05:24:59.561Z,15.7
2018-07-08T05:26:02.196Z,15.8
2018-07-08T05:27:04.526Z,15.8
2018-07-08T05:28:06.953Z,15.8
2018-07-08T05:29:09.002Z,15.8
2018-07-08T05:30:11.045Z,15.8
2018-07-08T05:31:13.078Z,15.9
2018-07-08T05:32:15.138Z,15.9
2018-07-08T05:33:17.459Z,15.9
2018-07-08T05:34:19.880Z,15.8
2018-07-08T05:35:21.921Z,15.9
2018-07-08T05:36:23.962Z,15.9
2018-07-08T05:37:26.004Z,15.9
2018-07-08T05:38:28.041Z,16
2018-07-08T05:39:30.361Z,16.1
2018-07-08T05:40:32.402Z,16
2018-07-08T05:41:34.436Z,16.1
2018-07-08T05:42:36.480Z,16.2
2018-07-08T05:43:38.521Z,16.2
2018-07-08T05:44:40.568Z,16.2
2018-07-08T05:45:42.606Z,16.3
2018-07-08T05:46:44.652Z,16.2
2018-07-08T05:47:46.974Z,16.3
2018-07-08T05:48:49.020Z,16.4
2018-07-08T05:49:51.064Z,16.4
2018-07-08T05:50:53.690Z,16.5
2018-07-08T05:51:55.735Z,16.5
2018-07-08T05:52:57.779Z,16.6
2018-07-08T05:53:59.830Z,16.5
2018-07-08T05:55:02.565Z,16.6
2018-07-08T05:56:04.618Z,16.5
2018-07-08T05:57:06.663Z,16.6
2018-07-08T05:58:08.686Z,16.7
2018-07-08T05:59:10.734Z,16.8
2018-07-08T06:00:12.771Z,16.7
2018-07-08T06:01:14.810Z,16.7
2018-07-08T06:02:16.855Z,16.7
2018-07-08T06:03:18.891Z,16.8
2018-07-08T06:04:20.934Z,16.8
2018-07-08T06:05:22.968Z,16.9
2018-07-08T06:06:25.003Z,16.9
2018-07-08T06:07:27.053Z,16.9
2018-07-08T06:08:29.099Z,16.9
2018-07-08T06:09:31.140Z,16.9
2018-07-08T06:10:33.192Z,17
2018-07-08T06:11:35.244Z,17
2018-07-08T06:12:37.297Z,17
2018-07-08T06:13:39.328Z,17.1
2018-07-08T06:14:41.370Z,17.1
2018-07-08T06:15:43.419Z,17.1
2018-07-08T06:16:45.468Z,17.1
2018-07-08T06:17:47.503Z,17.1
2018-07-08T06:18:49.550Z,17.1
2018-07-08T06:19:51.593Z,17.1
2018-07-08T06:20:53.920Z,17.1
2018-07-08T06:21:55.962Z,17.2
2018-07-08T06:22:58.388Z,17.2
2018-07-08T06:24:00.823Z,17.2
2018-07-08T06:25:02.859Z,17.3
2018-07-08T06:26:04.959Z,17.1
2018-07-08T06:27:06.957Z,17.2
2018-07-08T06:28:08.993Z,17.3
2018-07-08T06:29:11.416Z,17.3
2018-07-08T06:30:13.750Z,17.3
2018-07-08T06:31:15.805Z,17.5
2018-07-08T06:32:18.234Z,17.4
2018-07-08T06:33:20.661Z,17.4
2018-07-08T06:34:23.086Z,17.4
2018-07-08T06:35:25.404Z,17.4
2018-07-08T06:36:27.455Z,17.5
2018-07-08T06:37:29.767Z,17.6
2018-07-08T06:38:31.818Z,17.7
2018-07-08T06:39:33.863Z,17.8
2018-07-08T06:40:36.178Z,17.9
2018-07-08T06:41:38.223Z,18
2018-07-08T06:42:40.260Z,17.9
2018-07-08T06:43:42.309Z,17.9
2018-07-08T06:44:44.358Z,17.9
2018-07-08T06:45:46.389Z,17.9
2018-07-08T06:46:48.446Z,18
2018-07-08T06:47:50.487Z,18
2018-07-08T06:48:52.521Z,18.1
2018-07-08T06:49:54.581Z,18.1
2018-07-08T06:50:56.631Z,18.2
2018-07-08T06:51:58.696Z,18.3
2018-07-08T06:53:00.726Z,18.3
2018-07-08T06:54:02.769Z,18.3
2018-07-08T06:55:04.826Z,18.3
2018-07-08T06:56:06.893Z,18.3
2018-07-08T06:57:08.933Z,18.4
2018-07-08T06:58:11.371Z,18.5
2018-07-08T06:59:13.441Z,18.4
2018-07-08T07:00:15.505Z,18.4
2018-07-08T07:01:17.553Z,18.5
2018-07-08T07:02:19.630Z,18.6
2018-07-08T07:03:21.698Z,18.6
2018-07-08T07:04:23.757Z,18.7
2018-07-08T07:05:25.796Z,18.5
2018-07-08T07:06:28.238Z,18.5
2018-07-08T07:07:30.862Z,18.6
2018-07-08T07:08:33.219Z,18.6
2018-07-08T07:09:35.257Z,18.5
2018-07-08T07:10:37.691Z,18.6
2018-07-08T07:11:39.741Z,18.6
2018-07-08T07:12:41.788Z,18.7
2018-07-08T07:13:43.860Z,18.8
2018-07-08T07:14:45.906Z,18.7
2018-07-08T07:15:48.040Z,18.7
2018-07-08T07:16:50.084Z,18.7
2018-07-08T07:17:52.125Z,18.7
2018-07-08T07:18:54.179Z,18.9
2018-07-08T07:19:56.212Z,19
2018-07-08T07:20:58.472Z,19.1
2018-07-08T07:22:00.800Z,19.1
2018-07-08T07:23:02.897Z,19.2
2018-07-08T07:24:04.899Z,19.3
2018-07-08T07:25:07.319Z,19.3
2018-07-08T07:26:09.381Z,19.3
2018-07-08T07:27:11.574Z,19.4
2018-07-08T07:28:13.656Z,19.3
2018-07-08T07:29:15.700Z,19.3
2018-07-08T07:30:17.785Z,19.3
2018-07-08T07:31:20.184Z,19.5
2018-07-08T07:32:22.519Z,19.5
2018-07-08T07:33:24.552Z,19.5
2018-07-08T07:34:26.999Z,19.6
2018-07-08T07:35:29.028Z,19.7
2018-07-08T07:36:31.072Z,19.7
2018-07-08T07:37:33.504Z,19.6
2018-07-08T07:38:35.552Z,19.8
2018-07-08T07:39:38.718Z,19.9
2018-07-08T07:40:40.768Z,20
2018-07-08T07:41:43.083Z,20.1
2018-07-08T07:42:45.148Z,20.1
2018-07-08T07:43:47.185Z,20.1
2018-07-08T07:44:49.379Z,20.3
2018-07-08T07:45:51.500Z,20.2
2018-07-08T07:46:53.939Z,20.3
2018-07-08T07:47:55.984Z,20.3
2018-07-08T07:48:58.316Z,20.3
2018-07-08T07:50:00.368Z,20.3
2018-07-08T07:51:02.819Z,20.4
2018-07-08T07:52:05.452Z,20.5
2018-07-08T07:53:07.777Z,20.6
2018-07-08T07:54:09.833Z,20.7
2018-07-08T07:55:11.872Z,20.7
2018-07-08T07:56:14.000Z,20.6
2018-07-08T07:57:16.045Z,20.8
2018-07-08T07:58:18.383Z,20.9
2018-07-08T07:59:20.431Z,20.8
2018-07-08T08:00:22.473Z,20.9
2018-07-08T08:01:24.826Z,20.7
2018-07-08T08:02:26.866Z,20.5
2018-07-08T08:03:29.204Z,20.5
2018-07-08T08:04:31.255Z,20.6
2018-07-08T08:05:33.294Z,20.5
2018-07-08T08:06:35.354Z,20.8
2018-07-08T08:07:37.756Z,21
2018-07-08T08:08:40.080Z,21
2018-07-08T08:09:42.131Z,21
2018-07-08T08:10:44.548Z,21.1
2018-07-08T08:11:46.834Z,21.1
2018-07-08T08:12:49.246Z,21
2018-07-08T08:13:51.339Z,21
2018-07-08T08:14:53.340Z,21
2018-07-08T08:15:55.378Z,21.1
2018-07-08T08:16:57.816Z,21.3
2018-07-08T08:17:59.868Z,21.1
2018-07-08T08:19:02.315Z,20.9
2018-07-08T08:20:04.374Z,20.9
2018-07-08T08:21:06.454Z,21.2
2018-07-08T08:22:08.460Z,21
2018-07-08T08:23:10.505Z,21.1
2018-07-08T08:24:12.631Z,21.4
2018-07-08T08:25:14.997Z,21.4
2018-07-08T08:26:17.069Z,21.6
2018-07-08T08:27:19.396Z,21.7
2018-07-08T08:28:21.455Z,21.8
2018-07-08T08:29:23.506Z,21.8
2018-07-08T08:30:25.730Z,21.8
2018-07-08T08:31:27.789Z,21.9
2018-07-08T08:32:30.125Z,22
2018-07-08T08:33:32.483Z,22
2018-07-08T08:34:34.912Z,22.1
2018-07-08T08:35:37.169Z,21.8
2018-07-08T08:36:39.213Z,22.1
2018-07-08T08:37:41.263Z,22.2
2018-07-08T08:38:43.609Z,22.4
2018-07-08T08:39:45.946Z,22.3
2018-07-08T08:40:48.015Z,22.4
2018-07-08T08:41:50.165Z,22.5
2018-07-08T08:42:52.606Z,22.5
2018-07-08T08:43:54.951Z,22.8
2018-07-08T08:44:57.286Z,22.8
2018-07-08T08:45:59.365Z,23
2018-07-08T08:47:01.875Z,22.9
2018-07-08T08:48:03.926Z,22.6
2018-07-08T08:49:06.375Z,22.9
2018-07-08T08:50:08.805Z,23
2018-07-08T08:51:10.867Z,22.8
2018-07-08T08:52:13.560Z,22.7
2018-07-08T08:53:16.022Z,22.9
2018-07-08T08:54:18.068Z,23
2018-07-08T08:55:20.113Z,22.6
2018-07-08T08:56:22.173Z,22.9
2018-07-08T08:57:24.229Z,23.2
2018-07-08T08:58:26.823Z,23.5
2018-07-08T08:59:28.944Z,23.6
2018-07-08T09:00:30.997Z,23.5
2018-07-08T09:01:33.049Z,23.6
2018-07-08T09:02:35.108Z,23.8
2018-07-08T09:03:37.589Z,23.9
2018-07-08T09:04:39.611Z,24
2018-07-08T09:05:41.660Z,23.8
2018-07-08T09:06:43.706Z,24
2018-07-08T09:07:46.037Z,24
2018-07-08T09:08:48.370Z,24
2018-07-08T09:09:50.811Z,24.2
2018-07-08T09:10:52.867Z,24.2
2018-07-08T09:11:54.907Z,24
2018-07-08T09:12:56.953Z,24.2
2018-07-08T09:13:59.006Z,24.4
2018-07-08T09:15:01.353Z,24.3
2018-07-08T09:16:03.402Z,24.4
2018-07-08T09:17:05.469Z,24
2018-07-08T09:18:07.521Z,23.7
2018-07-08T09:19:09.565Z,24
2018-07-08T09:20:11.613Z,24.5
2018-07-08T09:21:13.678Z,24.7
2018-07-08T09:22:15.711Z,24.5
2018-07-08T09:23:17.767Z,24.5
2018-07-08T09:24:19.824Z,24.7
2018-07-08T09:25:21.890Z,25
2018-07-08T09:26:23.946Z,24.5
2018-07-08T09:27:26.285Z,24.5
2018-07-08T09:28:28.342Z,24.7
2018-07-08T09:29:30.767Z,25
2018-07-08T09:30:32.820Z,25
2018-07-08T09:31:35.166Z,25
2018-07-08T09:32:37.214Z,24.9
2018-07-08T09:33:39.266Z,24.9
2018-07-08T09:34:41.324Z,24.7
2018-07-08T09:35:43.376Z,24.9
2018-07-08T09:36:45.436Z,25
2018-07-08T09:37:47.769Z,25.3
2018-07-08T09:38:49.884Z,25.4
2018-07-08T09:39:52.272Z,25.3
2018-07-08T09:40:54.335Z,25
2018-07-08T09:41:56.677Z,25.2
2018-07-08T09:42:58.715Z,25.4
2018-07-08T09:44:01.043Z,25.3
2018-07-08T09:45:03.373Z,25.6
2018-07-08T09:46:05.433Z,25.5
2018-07-08T09:47:07.494Z,25.6
2018-07-08T09:48:09.564Z,25.7
2018-07-08T09:49:11.908Z,25
2018-07-08T09:50:13.939Z,25.6
2018-07-08T09:51:16.008Z,25.6
2018-07-08T09:52:18.054Z,26
2018-07-08T09:53:20.112Z,26.1
2018-07-08T09:54:22.170Z,25.5
2018-07-08T09:55:24.904Z,25.8
2018-07-08T09:56:26.971Z,25.8
2018-07-08T09:57:29.023Z,26
2018-07-08T09:58:31.081Z,26
2018-07-08T09:59:33.135Z,26.1
2018-07-08T10:00:35.478Z,26.5
2018-07-08T10:01:39.364Z,26.3
2018-07-08T10:02:45.245Z,26.7
2018-07-08T10:03:52.968Z,26.2
2018-07-08T10:05:07.891Z,25.9
2018-07-08T10:06:09.988Z,26.4
2018-07-08T10:07:12.348Z,26.1
2018-07-08T10:08:14.411Z,26.5
2018-07-08T10:09:16.765Z,26.4
2018-07-08T10:10:18.827Z,26.2
2018-07-08T10:11:20.884Z,26.4
2018-07-08T10:12:23.657Z,26.5
2018-07-08T10:13:25.712Z,26.4
2018-07-08T10:14:28.080Z,26.9
2018-07-08T10:15:30.134Z,27
2018-07-08T10:16:32.199Z,26.8
2018-07-08T10:17:34.310Z,26.3
2018-07-08T10:18:36.338Z,26.6
2018-07-08T10:19:38.439Z,27
2018-07-08T10:20:40.454Z,27.2
2018-07-08T10:21:42.508Z,27.1
2018-07-08T10:22:44.852Z,26.6
2018-07-08T10:23:46.906Z,26.6
2018-07-08T10:24:48.975Z,27
2018-07-08T10:25:51.034Z,27.3
2018-07-08T10:26:53.090Z,27
2018-07-08T10:27:55.434Z,27.4
2018-07-08T10:28:57.496Z,27
2018-07-08T10:29:59.939Z,26.3
2018-07-08T10:31:02.000Z,27
2018-07-08T10:32:04.070Z,27.1
2018-07-08T10:33:06.130Z,27.4
2018-07-08T10:34:08.185Z,27.4
2018-07-08T10:35:10.246Z,27.3
2018-07-08T10:36:12.921Z,27.2
2018-07-08T10:37:14.982Z,27
2018-07-08T10:38:17.488Z,27.1
2018-07-08T10:39:19.512Z,27.5
2018-07-08T10:40:21.869Z,27.7
2018-07-08T10:41:23.934Z,27.6
2018-07-08T10:42:25.989Z,27.3
2018-07-08T10:43:28.636Z,27.2
2018-07-08T10:44:30.930Z,27
2018-07-08T10:45:32.979Z,27.4
2018-07-08T10:46:35.031Z,27.2
2018-07-08T10:47:37.379Z,27.3
2018-07-08T10:48:39.745Z,27.9
2018-07-08T10:49:41.804Z,28.2
2018-07-08T10:50:43.866Z,28.3
2018-07-08T10:51:45.920Z,27.8
2018-07-08T10:52:47.989Z,27.2
2018-07-08T10:53:50.043Z,27.6
2018-07-08T10:54:52.096Z,27.5
2018-07-08T10:55:54.739Z,27.8
2018-07-08T10:56:56.791Z,27.4
2018-07-08T10:57:58.861Z,27.8
2018-07-08T10:59:00.915Z,27.7
2018-07-08T11:00:03.364Z,28
2018-07-08T11:01:05.714Z,28.3
2018-07-08T11:02:08.061Z,28.1
2018-07-08T11:03:10.125Z,27.9
2018-07-08T11:04:12.760Z,27.8
2018-07-08T11:05:14.817Z,27.7
2018-07-08T11:06:16.886Z,28.2
2018-07-08T11:07:19.243Z,28.2
2018-07-08T11:08:21.304Z,28.3
2018-07-08T11:09:23.368Z,27.8
2018-07-08T11:10:25.422Z,27.9
2018-07-08T11:11:27.479Z,27.7
2018-07-08T11:12:29.547Z,27.3
2018-07-08T11:13:31.980Z,26.7
2018-07-08T11:14:34.041Z,26.5
2018-07-08T11:15:36.105Z,26.5
2018-07-08T11:16:38.174Z,26.6
2018-07-08T11:17:40.239Z,26.8
2018-07-08T11:18:42.297Z,27.5
2018-07-08T11:19:44.650Z,27.9
2018-07-08T11:20:46.737Z,28.1
2018-07-08T11:21:49.081Z,27.7
2018-07-08T11:22:51.159Z,28.3
2018-07-08T11:23:53.213Z,28.4
2018-07-08T11:24:55.279Z,27.7
2018-07-08T11:25:57.341Z,27.2
2018-07-08T11:26:59.682Z,27.3
2018-07-08T11:28:01.750Z,27.8
2018-07-08T11:29:03.805Z,28.2
2018-07-08T11:30:06.546Z,28.6
2018-07-08T11:31:08.617Z,29
2018-07-08T11:32:11.073Z,28.6
2018-07-08T11:33:13.165Z,28.2
2018-07-08T11:34:15.204Z,27.8
2018-07-08T11:35:17.251Z,27.6
2018-07-08T11:36:19.315Z,27.9
2018-07-08T11:37:21.948Z,27.8
2018-07-08T11:38:24.009Z,27.1
2018-07-08T11:39:26.069Z,26.8
2018-07-08T11:40:28.138Z,26.7
2018-07-08T11:41:30.200Z,27.2
2018-07-08T11:42:32.253Z,26.7
2018-07-08T11:43:34.608Z,26.9
2018-07-08T11:44:36.973Z,27
2018-07-08T11:45:39.319Z,26.7
2018-07-08T11:46:41.372Z,26.6
2018-07-08T11:47:43.433Z,27.5
2018-07-08T11:48:45.778Z,27.1
2018-07-08T11:49:47.851Z,27
2018-07-08T11:50:49.900Z,26.8
2018-07-08T11:51:51.966Z,26.6
2018-07-08T11:52:54.313Z,26.2
2018-07-08T11:53:56.640Z,26.1
2018-07-08T11:54:59.094Z,26
2018-07-08T11:56:01.146Z,26
2018-07-08T11:57:03.209Z,25.8
2018-07-08T11:58:05.655Z,26.1
2018-07-08T11:59:07.718Z,25.4
2018-07-08T12:00:09.787Z,25.3
2018-07-08T12:01:12.141Z,25.7
2018-07-08T12:02:14.206Z,26
2018-07-08T12:03:16.270Z,26.1
2018-07-08T12:04:18.329Z,26.2
2018-07-08T12:05:20.388Z,26.6
2018-07-08T12:06:22.485Z,26.9
2018-07-08T12:07:24.507Z,26.6
2018-07-08T12:08:26.872Z,26
2018-07-08T12:09:29.235Z,25.6
2018-07-08T12:10:31.293Z,25.5
2018-07-08T12:11:33.351Z,26.1
2018-07-08T12:12:35.418Z,26.5
2018-07-08T12:13:37.473Z,27.1
2018-07-08T12:14:39.618Z,26.7
2018-07-08T12:15:41.593Z,26.9
2018-07-08T12:16:43.653Z,26.2
2018-07-08T12:17:46.018Z,26.4
2018-07-08T12:18:48.062Z,26.7
2018-07-08T12:19:50.119Z,26.7
2018-07-08T12:20:52.177Z,26.3
2018-07-08T12:21:54.523Z,25.9
2018-07-08T12:22:56.587Z,25.6
2018-07-08T12:23:58.919Z,25.3
2018-07-08T12:25:00.994Z,26
2018-07-08T12:26:03.047Z,26
2018-07-08T12:27:05.110Z,26.6
2018-07-08T12:28:07.166Z,26.5
2018-07-08T12:29:09.220Z,26.8
2018-07-08T12:30:11.565Z,26.6
2018-07-08T12:31:13.629Z,26.8
2018-07-08T12:32:15.681Z,26.9
2018-07-08T12:33:18.135Z,27.1
2018-07-08T12:34:20.182Z,27.3
2018-07-08T12:35:22.237Z,27.6
2018-07-08T12:36:24.309Z,27.3
2018-07-08T12:37:26.363Z,27.3
2018-07-08T12:38:28.817Z,27.1
2018-07-08T12:39:30.881Z,27
2018-07-08T12:40:32.936Z,27.3
2018-07-08T12:41:35.007Z,27.3
2018-07-08T12:42:37.058Z,26.5
2018-07-08T12:43:39.127Z,26.3
2018-07-08T12:44:41.970Z,26.2
2018-07-08T12:45:43.772Z,26.7
2018-07-08T12:46:46.118Z,26.8
2018-07-08T12:47:48.173Z,26.8
2018-07-08T12:48:50.239Z,27
2018-07-08T12:49:52.306Z,27.1
2018-07-08T12:50:54.358Z,27
2018-07-08T12:51:56.422Z,26.8
2018-07-08T12:52:58.769Z,26.5
2018-07-08T12:54:01.122Z,26.4
2018-07-08T12:55:03.177Z,26.7
2018-07-08T12:56:05.237Z,27.1
2018-07-08T12:57:07.299Z,27.5
2018-07-08T12:58:09.353Z,27.3
2018-07-08T12:59:11.411Z,27.5
2018-07-08T13:00:13.480Z,27.8
2018-07-08T13:01:16.078Z,27.8
2018-07-08T13:02:18.091Z,27.4
2018-07-08T13:03:20.109Z,27.5
2018-07-08T13:04:22.136Z,27.4
2018-07-08T13:05:24.148Z,27.5
2018-07-08T13:06:26.308Z,28.2
2018-07-08T13:07:28.240Z,28.5
2018-07-08T13:08:30.275Z,27.7
2018-07-08T13:09:32.492Z,27.7
2018-07-08T13:10:34.529Z,27.7
2018-07-08T13:11:36.637Z,27.8
2018-07-08T13:12:38.661Z,28.3
2018-07-08T13:13:41.411Z,28
2018-07-08T13:14:43.470Z,28.1
2018-07-08T13:15:45.521Z,28.3
2018-07-08T13:16:47.595Z,28.4
2018-07-08T13:17:50.049Z,28.3
2018-07-08T13:18:52.504Z,28.2
2018-07-08T13:19:55.383Z,28.3
2018-07-08T13:20:57.433Z,29.3
2018-07-08T13:21:59.793Z,29.4
2018-07-08T13:23:02.247Z,29
2018-07-08T13:24:05.120Z,29.3
2018-07-08T13:25:07.198Z,28.7
2018-07-08T13:26:09.262Z,28.4
2018-07-08T13:27:16.311Z,28.5
2018-07-08T13:28:20.671Z,28.5
2018-07-08T13:29:24.543Z,27.9
2018-07-08T13:30:39.111Z,27.3
2018-07-08T13:31:44.027Z,27.4
2018-07-08T13:32:46.685Z,27.3
2018-07-08T13:33:48.755Z,27.4
2018-07-08T13:34:51.106Z,27.4
2018-07-08T13:35:53.172Z,27.2
2018-07-08T13:36:55.229Z,26.5
2018-07-08T13:37:57.301Z,26.8
2018-07-08T13:38:59.400Z,27
2018-07-08T13:40:01.777Z,27.2
2018-07-08T13:41:03.837Z,27.5
2018-07-08T13:42:05.895Z,28.2
2018-07-08T13:43:07.977Z,28.4
2018-07-08T13:44:10.430Z,28
2018-07-08T13:45:12.487Z,28.4
2018-07-08T13:46:14.547Z,28.5
2018-07-08T13:47:17.033Z,28
2018-07-08T13:48:19.093Z,28.3
2018-07-08T13:49:21.160Z,28.3
2018-07-08T13:50:23.500Z,27.8
2018-07-08T13:51:25.557Z,28.3
2018-07-08T13:52:27.916Z,28.2
2018-07-08T13:53:30.296Z,28.4